createdAt,value
2018-10-12T00:00:51.209Z,61.77
2018-10-12T00:02:55.975Z,61.65
2018-10-12T00:05:00.680Z,61.36
2018-10-12T00:07:05.503Z,61.02
2018-10-12T00:09:11.489Z,60.83
2018-10-12T00:11:16.191Z,61.08
2018-10-12T00:13:20.982Z,60.70
2018-10-12T00:15:25.787Z,60.51
2018-10-12T00:17:30.662Z,60.73
2018-10-12T00:19:35.495Z,60.95
2018-10-12T00:21:40.746Z,61.61
2018-10-12T00:23:45.551Z,61.65
2018-10-12T00:25:51.097Z,61.46
2018-10-12T00:27:55.952Z,61.59
2018-10-12T00:30:00.733Z,61.46
2018-10-12T00:32:05.483Z,61.47
2018-10-12T00:34:10.437Z,61.64
2018-10-12T00:36:15.437Z,61.46
2018-10-12T00:38:20.391Z,61.60
2018-10-12T00:40:25.412Z,61.70
2018-10-12T00:42:30.044Z,61.86
2018-10-12T00:44:34.730Z,61.67
2018-10-12T00:46:39.445Z,61.90
2018-10-12T00:48:44.239Z,61.56
2018-10-12T00:50:49.129Z,61.50
2018-10-12T00:52:53.853Z,61.43
2018-10-12T00:54:58.775Z,61.40
2018-10-12T00:57:03.875Z,61.63
2018-10-12T00:59:08.736Z,61.85
2018-10-12T01:01:13.586Z,61.97
2018-10-12T01:03:18.359Z,62.11
2018-10-12T01:05:23.248Z,61.77
2018-10-12T01:07:27.997Z,61.38
2018-10-12T01:09:32.775Z,61.41
2018-10-12T01:11:37.622Z,61.75
2018-10-12T01:13:42.838Z,61.65
2018-10-12T01:15:47.670Z,61.92
2018-10-12T01:17:53.272Z,61.89
2018-10-12T01:19:58.615Z,61.63
2018-10-12T01:22:03.445Z,61.81
2018-10-12T01:24:08.450Z,61.94
2018-10-12T01:26:13.176Z,62.44
2018-10-12T01:28:17.856Z,62.42
2018-10-12T01:30:22.734Z,62.04
2018-10-12T01:32:32.555Z,61.63
2018-10-12T01:34:37.361Z,61.60
2018-10-12T01:36:42.295Z,61.83
2018-10-12T01:38:46.998Z,62.01
2018-10-12T01:40:51.666Z,62.14
2018-10-12T01:42:56.684Z,62.02
2018-10-12T01:45:01.548Z,61.80
2018-10-12T01:47:06.538Z,62.11
2018-10-12T01:49:11.215Z,62.05
2018-10-12T01:51:15.994Z,62.04
2018-10-12T01:53:20.669Z,62.18
2018-10-12T01:55:25.333Z,61.72
2018-10-12T01:57:29.997Z,61.93
2018-10-12T01:59:34.636Z,62.30
2018-10-12T02:01:39.508Z,62.39
2018-10-12T02:03:44.304Z,62.49
2018-10-12T02:05:49.055Z,62.35
2018-10-12T02:07:54.060Z,62.78
2018-10-12T02:09:58.840Z,63.14
2018-10-12T02:12:03.595Z,62.66
2018-10-12T02:14:08.400Z,62.38
2018-10-12T02:16:13.174Z,62.59
2018-10-12T02:18:17.863Z,62.73
2018-10-12T02:20:22.879Z,62.84
2018-10-12T02:22:27.641Z,63.28
2018-10-12T02:24:32.380Z,63.24
2018-10-12T02:26:37.105Z,62.96
2018-10-12T02:28:41.974Z,62.96
2018-10-12T02:30:46.777Z,63.47
2018-10-12T02:32:51.516Z,63.38
2018-10-12T02:34:56.382Z,63.74
2018-10-12T02:37:01.253Z,63.17
2018-10-12T02:39:12.145Z,63.75
2018-10-12T02:41:17.119Z,63.66
2018-10-12T02:43:22.518Z,64.04
2018-10-12T02:45:27.194Z,63.99
2018-10-12T02:47:32.162Z,63.89
2018-10-12T02:49:36.851Z,63.65
2018-10-12T02:51:41.764Z,64.03
2018-10-12T02:53:46.520Z,64.35
2018-10-12T02:55:51.454Z,64.35
2018-10-12T02:57:56.082Z,64.54
2018-10-12T03:00:00.717Z,63.95
2018-10-12T03:02:05.484Z,64.30
2018-10-12T03:04:10.226Z,64.10
2018-10-12T03:06:15.274Z,63.73
2018-10-12T03:08:20.176Z,64.02
2018-10-12T03:10:24.865Z,64.30
2018-10-12T03:12:29.589Z,63.96
2018-10-12T03:14:34.301Z,64.11
2018-10-12T03:16:39.070Z,64.35
2018-10-12T03:18:43.963Z,63.48
2018-10-12T03:20:48.627Z,63.33
2018-10-12T03:22:53.482Z,63.71
2018-10-12T03:24:58.379Z,63.92
2018-10-12T03:27:03.234Z,63.55
2018-10-12T03:29:07.965Z,63.48
2018-10-12T03:31:13.540Z,63.25
2018-10-12T03:33:18.330Z,63.27
2018-10-12T03:35:23.272Z,62.76
2018-10-12T03:37:28.022Z,63.37
2018-10-12T03:39:32.733Z,63.21
2018-10-12T03:41:37.565Z,63.19
2018-10-12T03:43:42.368Z,63.76
2018-10-12T03:45:52.619Z,63.50
2018-10-12T03:47:57.356Z,63.19
2018-10-12T03:50:02.216Z,63.87
2018-10-12T03:52:09.182Z,63.52
2018-10-12T03:54:13.921Z,64.01
2018-10-12T03:56:18.587Z,63.91
2018-10-12T03:58:23.386Z,63.62
2018-10-12T04:00:28.139Z,63.79
2018-10-12T04:02:32.864Z,64.36
2018-10-12T04:04:37.616Z,64.17
2018-10-12T04:06:42.305Z,63.69
2018-10-12T04:08:46.923Z,64.09
2018-10-12T04:10:51.664Z,64.12
2018-10-12T04:12:56.545Z,64.13
2018-10-12T04:15:01.313Z,64.20
2018-10-12T04:17:06.032Z,64.12
2018-10-12T04:19:10.717Z,63.66
2018-10-12T04:21:15.547Z,63.96
2018-10-12T04:23:20.245Z,64.11
2018-10-12T04:25:25.018Z,63.99
2018-10-12T04:27:29.796Z,64.35
2018-10-12T04:29:34.515Z,64.54
2018-10-12T04:31:39.328Z,64.10
2018-10-12T04:33:43.987Z,64.22
2018-10-12T04:35:48.920Z,64.26
2018-10-12T04:41:23.218Z,64.71
2018-10-12T04:43:28.009Z,64.61
2018-10-12T04:45:32.759Z,64.75
2018-10-12T04:47:37.767Z,64.90
2018-10-12T04:49:42.624Z,64.99
2018-10-12T04:51:53.433Z,65.36
2018-10-12T04:53:58.307Z,65.17
2018-10-12T04:56:03.205Z,65.03
2018-10-12T04:58:08.191Z,65.38
2018-10-12T05:00:13.070Z,65.28
2018-10-12T05:02:17.892Z,65.31
2018-10-12T05:04:22.727Z,64.78
2018-10-12T05:06:27.525Z,65.00
2018-10-12T05:08:32.366Z,65.17
2018-10-12T05:10:36.984Z,65.46
2018-10-12T05:12:41.779Z,65.50
2018-10-12T05:14:46.413Z,65.46
2018-10-12T05:16:51.174Z,65.83
2018-10-12T05:18:55.886Z,65.79
2018-10-12T05:21:01.703Z,65.88
2018-10-12T05:23:06.449Z,65.96
2018-10-12T05:25:11.243Z,65.71
2018-10-12T05:27:15.954Z,65.80
2018-10-12T05:29:20.738Z,65.43
2018-10-12T05:31:25.629Z,65.53
2018-10-12T05:33:30.417Z,65.61
2018-10-12T05:35:35.043Z,65.53
2018-10-12T05:37:40.105Z,65.41
2018-10-12T05:39:44.865Z,65.57
2018-10-12T05:41:49.566Z,65.50
2018-10-12T05:43:54.357Z,65.26
2018-10-12T05:45:58.963Z,65.32
2018-10-12T05:48:20.082Z,65.53
2018-10-12T05:50:24.799Z,65.48
2018-10-12T05:52:30.006Z,65.74
2018-10-12T05:54:34.785Z,65.34
2018-10-12T05:56:40.930Z,65.83
2018-10-12T05:58:46.764Z,65.70
2018-10-12T06:00:51.765Z,65.19
2018-10-12T06:02:56.536Z,65.46
2018-10-12T06:05:01.421Z,65.45
2018-10-12T06:07:06.463Z,65.50
2018-10-12T06:09:11.777Z,64.91
2018-10-12T06:11:16.717Z,65.37
2018-10-12T06:13:21.466Z,65.14
2018-10-12T06:15:26.526Z,64.94
2018-10-12T06:17:31.392Z,64.92
2018-10-12T06:19:36.144Z,64.87
2018-10-12T06:21:40.936Z,64.81
2018-10-12T06:23:45.617Z,64.77
2018-10-12T06:25:50.308Z,64.44
2018-10-12T06:27:55.115Z,64.74
2018-10-12T06:29:59.772Z,64.83
2018-10-12T06:32:04.666Z,64.91
2018-10-12T06:34:09.585Z,64.59
2018-10-12T06:36:14.359Z,64.27
2018-10-12T06:38:19.288Z,64.30
2018-10-12T06:40:24.097Z,63.92
2018-10-12T06:42:29.609Z,63.94
2018-10-12T06:44:34.586Z,64.18
2018-10-12T06:46:39.520Z,64.17
2018-10-12T06:48:44.156Z,64.15
2018-10-12T06:50:48.935Z,63.70
2018-10-12T06:52:53.748Z,63.75
2018-10-12T06:54:58.553Z,64.08
2018-10-12T06:57:03.480Z,63.26
2018-10-12T06:59:08.444Z,63.57
2018-10-12T07:01:13.248Z,63.37
2018-10-12T07:03:18.020Z,63.47
2018-10-12T07:05:22.969Z,63.60
2018-10-12T07:07:27.806Z,63.38
2018-10-12T07:09:32.563Z,63.41
2018-10-12T07:11:37.321Z,63.04
2018-10-12T07:13:42.056Z,62.83
2018-10-12T07:15:47.893Z,63.19
2018-10-12T07:17:52.695Z,62.40
2018-10-12T07:19:57.436Z,62.98
2018-10-12T07:22:02.208Z,62.73
2018-10-12T07:24:07.403Z,62.44
2018-10-12T07:26:12.395Z,62.35
2018-10-12T07:28:17.195Z,62.06
2018-10-12T07:30:22.079Z,61.63
2018-10-12T07:32:26.795Z,61.80
2018-10-12T07:34:31.705Z,60.93
2018-10-12T07:36:36.561Z,60.59
2018-10-12T07:38:41.403Z,59.99
2018-10-12T07:40:46.355Z,60.00
2018-10-12T07:42:51.273Z,59.24
2018-10-12T07:44:56.266Z,59.43
2018-10-12T07:47:01.132Z,59.56
2018-10-12T07:49:06.103Z,58.90
2018-10-12T07:51:10.894Z,59.37
2018-10-12T07:53:15.822Z,58.83
2018-10-12T07:55:20.619Z,58.99
2018-10-12T07:57:32.789Z,59.32
2018-10-12T07:59:37.635Z,58.52
2018-10-12T08:01:42.517Z,58.53
2018-10-12T08:03:47.385Z,59.15
2018-10-12T08:05:52.304Z,58.75
2018-10-12T08:07:57.047Z,58.50
2018-10-12T08:10:01.785Z,59.14
2018-10-12T08:12:07.090Z,57.47
2018-10-12T08:14:11.882Z,58.02
2018-10-12T08:16:16.467Z,57.35
2018-10-12T08:18:21.350Z,57.51
2018-10-12T08:20:26.364Z,58.08
2018-10-12T08:22:31.991Z,57.56
2018-10-12T08:24:36.807Z,57.30
2018-10-12T08:26:41.914Z,57.39
2018-10-12T08:28:46.772Z,57.73
2018-10-12T08:30:51.496Z,57.68
2018-10-12T08:32:56.239Z,57.60
2018-10-12T08:35:00.923Z,57.61
2018-10-12T08:37:06.313Z,57.36
2018-10-12T08:39:13.118Z,57.18
2018-10-12T08:41:17.868Z,56.50
2018-10-12T08:43:22.821Z,56.26
2018-10-12T08:45:27.480Z,55.53
2018-10-12T08:47:32.219Z,56.52
2018-10-12T08:49:36.997Z,56.35
2018-10-12T08:51:41.732Z,56.40
2018-10-12T08:53:46.457Z,56.30
2018-10-12T08:55:51.238Z,55.61
2018-10-12T08:57:55.996Z,56.12
2018-10-12T09:00:00.678Z,55.33
2018-10-12T09:02:05.808Z,55.01
2018-10-12T09:04:10.638Z,55.23
2018-10-12T09:06:15.765Z,55.08
2018-10-12T09:08:20.718Z,54.91
2018-10-12T09:10:47.989Z,54.25
2018-10-12T09:12:52.668Z,54.29
2018-10-12T09:14:57.414Z,53.73
2018-10-12T09:17:02.298Z,53.83
2018-10-12T09:19:07.262Z,54.28
2018-10-12T09:21:12.324Z,54.40
2018-10-12T09:23:17.332Z,54.59
2018-10-12T09:25:22.136Z,54.45
2018-10-12T09:27:27.026Z,54.29
2018-10-12T09:29:31.857Z,54.09
2018-10-12T09:31:36.657Z,53.85
2018-10-12T09:33:41.555Z,53.32
2018-10-12T09:35:46.469Z,52.79
2018-10-12T09:37:51.430Z,52.86
2018-10-12T09:39:56.505Z,53.31
2018-10-12T09:42:01.446Z,52.76
2018-10-12T09:44:06.123Z,53.46
2018-10-12T09:46:11.217Z,53.19
2018-10-12T09:48:15.891Z,52.93
2018-10-12T09:50:20.549Z,52.36
2018-10-12T09:52:25.212Z,51.97
2018-10-12T09:54:30.054Z,51.83
2018-10-12T09:56:35.046Z,51.65
2018-10-12T09:58:39.896Z,51.37
2018-10-12T10:00:49.659Z,51.22
2018-10-12T10:03:03.434Z,51.08
2018-10-12T10:05:11.567Z,51.88
2018-10-12T10:07:16.303Z,51.20
2018-10-12T10:09:21.024Z,51.25
2018-10-12T10:11:25.702Z,51.49
2018-10-12T10:13:30.540Z,51.17
2018-10-12T10:15:35.337Z,51.14
2018-10-12T10:17:39.968Z,50.89
2018-10-12T10:19:44.684Z,51.29
2018-10-12T10:21:49.383Z,51.28
2018-10-12T10:23:54.092Z,51.43
2018-10-12T10:25:58.838Z,50.56
2018-10-12T10:28:03.723Z,50.44
2018-10-12T10:30:08.556Z,50.66
2018-10-12T10:32:13.539Z,50.28
2018-10-12T10:34:18.271Z,50.59
2018-10-12T10:36:23.125Z,50.67
2018-10-12T10:38:27.885Z,49.34
2018-10-12T10:40:32.869Z,49.47
2018-10-12T10:42:37.610Z,49.66
2018-10-12T10:44:42.524Z,50.16
2018-10-12T10:46:47.350Z,49.82
2018-10-12T10:48:52.214Z,48.89
2018-10-12T10:50:57.364Z,48.72
2018-10-12T10:53:02.451Z,48.49
2018-10-12T10:55:07.339Z,48.33
2018-10-12T10:57:12.427Z,48.04
2018-10-12T10:59:17.362Z,47.88
2018-10-12T11:01:22.169Z,48.18
2018-10-12T11:03:27.146Z,48.22
2018-10-12T11:05:31.952Z,48.29
2018-10-12T11:07:36.726Z,47.45
2018-10-12T11:09:41.483Z,47.42
2018-10-12T11:11:46.192Z,47.37
2018-10-12T11:13:50.921Z,47.11
2018-10-12T11:15:55.628Z,47.14
2018-10-12T11:18:00.386Z,47.33
2018-10-12T11:20:05.189Z,47.15
2018-10-12T11:22:09.877Z,46.67
2018-10-12T11:24:14.587Z,46.34
2018-10-12T11:26:19.424Z,47.01
2018-10-12T11:28:24.122Z,46.55
2018-10-12T11:30:29.686Z,46.33
2018-10-12T11:32:34.539Z,46.34
2018-10-12T11:34:39.347Z,46.20
2018-10-12T11:36:44.118Z,46.23
2018-10-12T11:38:48.997Z,46.26
2018-10-12T11:40:54.255Z,45.21
2018-10-12T11:43:15.398Z,44.89
2018-10-12T11:45:20.379Z,45.40
2018-10-12T11:47:25.310Z,44.91
2018-10-12T11:49:30.400Z,44.67
2018-10-12T11:51:35.664Z,44.86
2018-10-12T11:53:40.409Z,44.75
2018-10-12T11:55:45.601Z,44.66
2018-10-12T11:57:50.431Z,44.58
2018-10-12T11:59:55.237Z,44.22
2018-10-12T12:01:59.974Z,44.50
2018-10-12T12:04:04.717Z,44.52
2018-10-12T12:06:09.597Z,44.53
2018-10-12T12:08:14.527Z,44.63
2018-10-12T12:10:19.263Z,44.70
2018-10-12T12:12:23.995Z,44.46
2018-10-12T12:14:28.788Z,44.23
2018-10-12T12:16:33.550Z,43.71
2018-10-12T12:18:38.308Z,44.39
2018-10-12T12:20:43.152Z,43.97
2018-10-12T12:22:47.928Z,43.53
2018-10-12T12:24:52.585Z,43.14
2018-10-12T12:26:57.242Z,43.77
2018-10-12T12:29:01.965Z,43.27
2018-10-12T12:31:06.748Z,43.86
2018-10-12T12:33:11.570Z,43.04
2018-10-12T12:35:16.582Z,42.46
2018-10-12T12:37:20.960Z,43.14
2018-10-12T12:39:25.780Z,43.22
2018-10-12T12:41:30.688Z,42.53
2018-10-12T12:43:35.694Z,42.37
2018-10-12T12:45:40.662Z,42.60
2018-10-12T12:47:45.610Z,42.48
2018-10-12T12:49:50.370Z,42.34
2018-10-12T12:51:55.238Z,41.85
2018-10-12T12:54:00.107Z,41.54
2018-10-12T12:56:04.848Z,41.28
2018-10-12T12:58:09.569Z,41.80
2018-10-12T13:00:14.491Z,42.17
2018-10-12T13:02:19.143Z,41.73
2018-10-12T13:04:23.876Z,41.64
2018-10-12T13:06:28.626Z,41.29
2018-10-12T13:08:33.406Z,41.16
2018-10-12T13:10:38.129Z,40.80
2018-10-12T13:12:49.283Z,40.99
2018-10-12T13:14:53.982Z,40.73
2018-10-12T13:16:58.706Z,40.93
2018-10-12T13:19:03.382Z,40.65
2018-10-12T13:21:08.194Z,40.63
2018-10-12T13:23:12.991Z,40.97
2018-10-12T13:25:17.605Z,40.40
2018-10-12T13:27:22.370Z,40.43
2018-10-12T13:29:27.059Z,40.07
2018-10-12T13:31:31.781Z,40.36
2018-10-12T13:33:37.145Z,40.04
2018-10-12T13:35:42.070Z,39.10
2018-10-12T13:37:46.804Z,39.28
2018-10-12T13:39:51.536Z,39.54
2018-10-12T13:41:56.495Z,39.59
2018-10-12T13:44:01.320Z,39.18
2018-10-12T13:46:06.227Z,39.28
2018-10-12T13:48:11.146Z,39.57
2018-10-12T13:50:15.835Z,39.11
2018-10-12T13:52:20.621Z,39.38
2018-10-12T13:54:25.702Z,39.52
2018-10-12T13:56:30.235Z,39.41
2018-10-12T13:58:34.995Z,38.97
2018-10-12T14:00:39.708Z,38.76
2018-10-12T14:02:44.493Z,38.63
2018-10-12T14:04:49.286Z,38.73
2018-10-12T14:06:54.626Z,39.42
2018-10-12T14:08:59.369Z,39.53
2018-10-12T14:11:04.359Z,38.75
2018-10-12T14:13:09.173Z,38.67
2018-10-12T14:15:14.097Z,39.39
2018-10-12T14:17:18.986Z,39.28
2018-10-12T14:19:24.193Z,39.47
2018-10-12T14:21:28.742Z,38.93
2018-10-12T14:23:33.462Z,38.66
2018-10-12T14:25:38.158Z,38.97
2018-10-12T14:27:42.969Z,39.05
2018-10-12T14:29:47.729Z,38.96
2018-10-12T14:31:52.555Z,39.24
2018-10-12T14:33:57.311Z,38.94
2018-10-12T14:36:02.283Z,39.09
2018-10-12T14:38:07.167Z,39.09
2018-10-12T14:40:12.054Z,39.14
2018-10-12T14:42:17.234Z,38.87
2018-10-12T14:44:22.446Z,39.22
2018-10-12T14:46:27.471Z,39.38
2018-10-12T14:48:32.698Z,39.30
2018-10-12T14:50:37.626Z,39.28
2018-10-12T14:52:42.423Z,39.34
2018-10-12T14:54:47.246Z,39.47
2018-10-12T14:56:52.097Z,39.36
2018-10-12T14:58:56.993Z,38.87
2018-10-12T15:01:02.039Z,39.07
2018-10-12T15:03:07.123Z,39.61
2018-10-12T15:05:11.828Z,39.28
2018-10-12T15:07:16.743Z,39.82
2018-10-12T15:09:21.715Z,39.48
2018-10-12T15:11:26.918Z,39.66
2018-10-12T15:13:31.831Z,39.81
2018-10-12T15:15:36.624Z,39.57
2018-10-12T15:17:41.611Z,39.94
2018-10-12T15:19:46.443Z,39.66
2018-10-12T15:21:51.216Z,40.18
2018-10-12T15:23:56.508Z,40.06
2018-10-12T15:26:01.407Z,39.70
2018-10-12T15:28:06.577Z,39.49
2018-10-12T15:30:12.147Z,40.11
2018-10-12T15:32:17.289Z,39.73
2018-10-12T15:34:22.235Z,39.43
2018-10-12T15:36:28.119Z,39.93
2018-10-12T15:38:33.738Z,39.93
2018-10-12T15:40:39.051Z,40.20
2018-10-12T15:45:16.865Z,40.00
2018-10-12T15:49:46.793Z,40.41
2018-10-12T15:51:51.864Z,40.45
2018-10-12T15:53:56.958Z,40.61
2018-10-12T15:56:02.271Z,40.74
2018-10-12T15:58:06.988Z,41.11
2018-10-12T16:00:11.935Z,40.94
2018-10-12T16:02:17.796Z,41.21
2018-10-12T16:04:23.155Z,41.42
2018-10-12T16:06:27.986Z,41.71
2018-10-12T16:08:32.630Z,41.95
2018-10-12T16:10:37.652Z,41.87
2018-10-12T16:12:42.503Z,42.14
2018-10-12T16:14:47.354Z,41.88
2018-10-12T16:16:52.190Z,41.90
2018-10-12T16:18:57.129Z,42.44
2018-10-12T16:21:02.170Z,42.58
2018-10-12T16:23:07.149Z,42.74
2018-10-12T16:25:59.663Z,42.84
2018-10-12T16:28:04.405Z,42.84
2018-10-12T16:30:09.331Z,42.88
2018-10-12T16:32:14.141Z,42.84
2018-10-12T16:34:18.790Z,43.05
2018-10-12T16:36:23.548Z,43.38
2018-10-12T16:38:28.444Z,43.33
2018-10-12T16:40:33.251Z,43.30
2018-10-12T16:42:38.075Z,43.79
2018-10-12T16:44:43.356Z,44.50
2018-10-12T16:46:52.476Z,44.41
2018-10-12T16:48:58.950Z,44.71
2018-10-12T16:51:03.626Z,44.53
2018-10-12T16:53:08.830Z,44.74
2018-10-12T16:55:13.739Z,44.74
2018-10-12T16:57:22.557Z,44.93
2018-10-12T16:59:27.567Z,45.00
2018-10-12T17:01:32.471Z,44.74
2018-10-12T17:03:37.467Z,44.74
2018-10-12T17:05:42.202Z,45.07
2018-10-12T17:07:47.152Z,45.58
2018-10-12T17:09:51.972Z,45.35
2018-10-12T17:11:56.815Z,45.49
2018-10-12T17:14:01.463Z,46.09
2018-10-12T17:16:06.415Z,46.19
2018-10-12T17:18:11.194Z,46.49
2018-10-12T17:20:22.592Z,46.13
2018-10-12T17:22:27.574Z,46.62
2018-10-12T17:24:32.408Z,46.59
2018-10-12T17:26:37.407Z,46.87
2018-10-12T17:28:42.162Z,47.14
2018-10-12T17:30:47.172Z,47.13
2018-10-12T17:32:51.989Z,47.45
2018-10-12T17:34:57.012Z,47.41
2018-10-12T17:37:02.125Z,47.56
2018-10-12T17:39:12.672Z,47.73
2018-10-12T17:41:19.005Z,47.64
2018-10-12T17:43:24.226Z,47.82
2018-10-12T17:45:29.104Z,47.91
2018-10-12T17:47:34.521Z,48.33
2018-10-12T17:49:39.732Z,48.09
2018-10-12T17:51:44.885Z,48.41
2018-10-12T17:53:50.028Z,48.73
2018-10-12T17:55:56.075Z,48.70
2018-10-12T17:58:07.723Z,48.31
2018-10-12T18:00:13.408Z,48.60
2018-10-12T18:02:20.104Z,48.58
2018-10-12T18:04:29.913Z,48.84
2018-10-12T18:06:35.379Z,48.89
2018-10-12T18:08:41.124Z,48.79
2018-10-12T18:10:46.871Z,49.37
2018-10-12T18:12:56.824Z,49.59
2018-10-12T18:15:02.530Z,49.75
2018-10-12T18:17:07.996Z,49.72
2018-10-12T18:19:13.671Z,49.68
2018-10-12T18:21:18.722Z,49.65
2018-10-12T18:23:23.606Z,49.74
2018-10-12T18:25:28.371Z,49.81
2018-10-12T18:27:33.429Z,50.20
2018-10-12T18:29:38.414Z,50.39
2018-10-12T18:31:43.917Z,50.14
2018-10-12T18:33:49.327Z,50.64
2018-10-12T18:35:54.299Z,50.89
2018-10-12T18:38:00.468Z,50.74
2018-10-12T18:40:05.474Z,50.85
2018-10-12T18:42:10.494Z,50.84
2018-10-12T18:44:16.145Z,50.97
2018-10-12T18:46:21.458Z,51.65
2018-10-12T18:48:26.853Z,51.42
2018-10-12T18:50:31.874Z,51.38
2018-10-12T18:52:37.253Z,51.51
2018-10-12T18:54:42.139Z,51.76
2018-10-12T18:56:47.014Z,51.56
2018-10-12T18:58:56.210Z,51.92
2018-10-12T19:01:01.130Z,52.05
2018-10-12T19:03:06.284Z,51.77
2018-10-12T19:05:11.544Z,52.15
2018-10-12T19:07:16.908Z,52.05
2018-10-12T19:09:31.269Z,52.11
2018-10-12T19:11:37.323Z,52.36
2018-10-12T19:13:42.447Z,52.82
2018-10-12T19:15:48.063Z,52.95
2018-10-12T19:17:52.771Z,53.13
2018-10-12T19:19:57.843Z,52.96
2018-10-12T19:22:04.232Z,52.67
2018-10-12T19:26:13.532Z,53.15
2018-10-12T19:28:19.409Z,53.31
2018-10-12T19:30:25.188Z,53.25
2018-10-12T19:32:30.671Z,53.02
2018-10-12T19:34:36.585Z,53.24
2018-10-12T19:36:43.082Z,53.15
2018-10-12T19:38:49.618Z,53.20
2018-10-12T19:40:54.973Z,53.29
2018-10-12T19:43:00.550Z,53.33
2018-10-12T19:45:05.827Z,53.44
2018-10-12T19:47:10.909Z,53.27
2018-10-12T19:49:16.105Z,53.49
2018-10-12T19:51:20.983Z,53.67
2018-10-12T19:53:25.753Z,53.56
2018-10-12T19:55:30.879Z,53.64
2018-10-12T19:57:35.912Z,54.19
2018-10-12T19:59:40.864Z,53.92
2018-10-12T20:01:46.316Z,54.37
2018-10-12T20:03:51.667Z,54.71
2018-10-12T20:05:56.998Z,54.61
2018-10-12T20:08:02.173Z,54.36
2018-10-12T20:10:07.365Z,54.95
2018-10-12T20:12:14.374Z,55.13
2018-10-12T20:14:19.826Z,55.38
2018-10-12T20:16:25.279Z,55.53
2018-10-12T20:18:30.087Z,55.67
2018-10-12T20:20:34.931Z,55.87
2018-10-12T20:22:40.191Z,55.93
2018-10-12T20:24:45.293Z,56.01
2018-10-12T20:26:51.440Z,56.28
2018-10-12T20:28:56.834Z,56.37
2018-10-12T20:31:02.183Z,56.28
2018-10-12T20:33:07.265Z,56.12
2018-10-12T20:35:12.633Z,56.33
2018-10-12T20:37:18.078Z,56.63
2018-10-12T20:39:23.262Z,57.03
2018-10-12T20:41:28.077Z,57.15
2018-10-12T20:43:32.877Z,56.73
2018-10-12T20:45:37.674Z,57.23
2018-10-12T20:47:42.625Z,57.06
2018-10-12T20:49:47.683Z,57.01
2018-10-12T20:51:52.493Z,57.33
2018-10-12T20:53:57.417Z,57.58
2018-10-12T20:56:02.581Z,57.80
2018-10-12T20:58:12.286Z,57.51
2018-10-12T21:00:18.755Z,57.35
2018-10-12T21:02:23.828Z,57.56
2018-10-12T21:04:28.755Z,57.48
2018-10-12T21:06:33.978Z,57.89
2018-10-12T21:08:38.740Z,58.05
2018-10-12T21:10:43.646Z,57.80
2018-10-12T21:12:48.617Z,57.93
2018-10-12T21:14:53.397Z,58.38
2018-10-12T21:16:58.304Z,58.23
2018-10-12T21:19:03.239Z,58.45
2018-10-12T21:21:08.335Z,58.14
2018-10-12T21:23:13.185Z,57.62
2018-10-12T21:25:17.975Z,58.29
2018-10-12T21:27:23.007Z,58.38
2018-10-12T21:29:27.753Z,58.28
2018-10-12T21:31:32.892Z,57.83
2018-10-12T21:33:37.736Z,57.90
2018-10-12T21:35:42.539Z,58.02
2018-10-12T21:37:47.569Z,58.45
2018-10-12T21:39:52.417Z,57.72
2018-10-12T21:41:57.505Z,57.41
2018-10-12T21:44:02.337Z,57.69
2018-10-12T21:46:07.234Z,57.63
2018-10-12T21:48:12.906Z,57.66
2018-10-12T21:50:18.031Z,57.22
2018-10-12T21:52:22.871Z,57.24
2018-10-12T21:54:27.752Z,57.26
2018-10-12T21:56:32.708Z,56.87
2018-10-12T21:58:37.793Z,56.80
2018-10-12T22:00:42.863Z,57.21
2018-10-12T22:02:48.246Z,56.79
2018-10-12T22:04:53.231Z,56.86
2018-10-12T22:06:58.221Z,56.83
2018-10-12T22:09:06.268Z,56.77
2018-10-12T22:11:13.175Z,56.47
2018-10-12T22:13:18.256Z,56.35
2018-10-12T22:15:23.374Z,56.50
2018-10-12T22:17:28.311Z,56.74
2018-10-12T22:19:33.198Z,56.86
2018-10-12T22:21:39.010Z,56.97
2018-10-12T22:23:43.818Z,57.11
2018-10-12T22:25:49.544Z,56.95
2018-10-12T22:27:54.563Z,56.88
2018-10-12T22:29:59.400Z,57.14
2018-10-12T22:32:04.358Z,57.03
2018-10-12T22:34:09.523Z,56.99
2018-10-12T22:36:14.439Z,56.65
2018-10-12T22:38:19.327Z,56.21
2018-10-12T22:40:24.304Z,56.45
2018-10-12T22:42:29.261Z,56.24
2018-10-12T22:44:34.371Z,56.27
2018-10-12T22:46:39.346Z,56.76
2018-10-12T22:48:44.308Z,56.51
2018-10-12T22:50:49.955Z,56.51
2018-10-12T22:52:54.997Z,56.86
2018-10-12T22:54:59.976Z,56.71
2018-10-12T22:57:04.934Z,56.26
2018-10-12T22:59:10.020Z,56.44
2018-10-12T23:01:14.862Z,56.47
2018-10-12T23:03:19.927Z,56.98
2018-10-12T23:05:24.873Z,56.78
2018-10-12T23:07:29.764Z,56.64
2018-10-12T23:09:35.024Z,57.05
2018-10-12T23:11:40.345Z,56.80
2018-10-12T23:13:45.123Z,56.94
2018-10-12T23:15:50.119Z,57.00
2018-10-12T23:17:54.869Z,56.66
2018-10-12T23:19:59.625Z,56.93
2018-10-12T23:22:04.420Z,56.87
2018-10-12T23:24:09.353Z,56.54
2018-10-12T23:26:14.159Z,56.76
2018-10-12T23:28:18.869Z,56.77
2018-10-12T23:30:24.226Z,57.10
2018-10-12T23:32:29.265Z,56.67
2018-10-12T23:34:34.178Z,56.42
2018-10-12T23:36:39.279Z,56.92
2018-10-12T23:38:44.058Z,56.36
2018-10-12T23:40:48.908Z,57.03
2018-10-12T23:42:53.647Z,57.27
2018-10-12T23:44:58.678Z,57.17
2018-10-12T23:47:03.468Z,57.33
2018-10-12T23:49:08.491Z,57.03
2018-10-12T23:51:13.656Z,57.41
2018-10-12T23:53:18.373Z,57.18
2018-10-12T23:55:23.110Z,57.14
2018-10-12T23:57:28.234Z,57.34
2018-10-12T23:59:33.077Z,57.16
